Terminal Aerodrome Forecast
Issued by NWS Denver/Boulder, CO

Home | Current Version | Previous Version | Text Only | Print | Product List | Glossary On
Versions: 1 2 3 4 5 6 7 8 9 10 11 12 13 14 15 16 17 18 19 20 21 22 23 24 25 26 27 28 29 30 31 32 33
000
FTUS45 KBOU 151057 AAD
TAFDEN
TAF AMD
KDEN 151057Z 1511/1612 06011KT 6SM -SN BR SCT005 OVC007
      TEMPO 1512/1514 2SM -SN BR BKN005
     FM151400 06012KT 1SM -SN BR BKN005 OVC008
     FM151900 02012KT 3SM -SN BR SCT008 OVC012
     FM152100 05009KT P6SM VCSH SCT008 BKN020 OVC030
     FM160200 12006KT P6SM SCT040 SCT120
     FM160700 18008KT P6SM SCT200=

USA.gov is the U.S. government's official web portal to all federal, state and local government web resources and services.